createdAt,value
2023-02-22T00:00:34.934Z,41.33
2023-02-22T00:03:18.458Z,41.27
2023-02-22T00:05:57.158Z,41.28
2023-02-22T00:08:29.107Z,41.27
2023-02-22T00:11:11.456Z,41.25
2023-02-22T00:13:42.053Z,41.28
2023-02-22T00:16:09.132Z,41.22
2023-02-22T00:18:42.056Z,41.26
2023-02-22T00:21:12.994Z,41.25
2023-02-22T00:23:50.198Z,41.21
2023-02-22T00:26:23.732Z,41.22
2023-02-22T00:28:54.297Z,41.26
2023-02-22T00:31:23.732Z,41.22
2023-02-22T00:33:53.249Z,41.24
2023-02-22T00:36:30.771Z,41.23
2023-02-22T00:39:00.342Z,41.22
2023-02-22T00:41:30.567Z,41.23
2023-02-22T00:44:03.754Z,41.23
2023-02-22T00:46:37.634Z,41.21
2023-02-22T00:49:08.044Z,41.29
2023-02-22T00:51:38.794Z,41.21
2023-02-22T00:54:08.879Z,41.21
2023-02-22T00:56:44.272Z,41.21
2023-02-22T00:59:11.991Z,41.21
2023-02-22T01:01:44.840Z,41.17
2023-02-22T01:04:17.535Z,41.23
2023-02-22T01:06:52.084Z,41.24
2023-02-22T01:09:21.620Z,41.26
2023-02-22T01:11:55.367Z,41.17
2023-02-22T01:14:26.123Z,41.18
2023-02-22T01:17:00.191Z,41.22
2023-02-22T01:19:27.579Z,41.19
2023-02-22T01:22:01.421Z,41.20
2023-02-22T01:24:32.155Z,41.19
2023-02-22T01:27:05.647Z,41.19
2023-02-22T01:29:38.882Z,41.18
2023-02-22T01:32:12.253Z,41.17
2023-02-22T01:34:45.773Z,41.19
2023-02-22T01:37:15.979Z,41.20
2023-02-22T01:39:48.502Z,41.15
2023-02-22T01:42:21.489Z,41.28
2023-02-22T01:45:08.087Z,41.17
2023-02-22T01:47:38.254Z,41.11
2023-02-22T01:50:08.313Z,41.14
2023-02-22T01:52:40.794Z,41.15
2023-02-22T01:55:07.608Z,41.12
2023-02-22T01:57:41.201Z,41.26
2023-02-22T02:00:13.855Z,41.15
2023-02-22T02:02:47.225Z,41.17
2023-02-22T02:05:18.792Z,41.12
2023-02-22T02:07:52.115Z,41.17
2023-02-22T02:10:22.830Z,41.17
2023-02-22T02:12:53.440Z,41.12
2023-02-22T02:15:22.454Z,41.19
2023-02-22T02:17:54.436Z,41.17
2023-02-22T02:20:29.807Z,41.16
2023-02-22T02:23:14.581Z,41.20
2023-02-22T02:25:53.821Z,41.22
2023-02-22T02:28:55.072Z,41.23
2023-02-22T02:31:40.620Z,41.24
2023-02-22T02:34:31.862Z,41.16
2023-02-22T02:37:13.305Z,41.18
2023-02-22T02:40:02.485Z,41.21
2023-02-22T02:42:38.599Z,41.23
2023-02-22T02:45:12.140Z,41.22
2023-02-22T02:47:48.463Z,41.25
2023-02-22T02:50:50.708Z,41.21
2023-02-22T02:53:29.775Z,41.24
2023-02-22T02:56:00.782Z,41.23
2023-02-22T02:58:31.761Z,41.28
2023-02-22T03:01:03.827Z,41.25
2023-02-22T03:03:55.731Z,41.44
2023-02-22T03:06:56.655Z,41.21
2023-02-22T03:10:10.020Z,41.27
2023-02-22T03:12:58.645Z,41.25
2023-02-22T03:15:44.180Z,41.17
2023-02-22T03:18:25.638Z,41.24
2023-02-22T03:21:35.845Z,41.24
2023-02-22T03:24:21.333Z,41.26
2023-02-22T03:27:24.492Z,41.18
2023-02-22T03:30:02.567Z,41.22
2023-02-22T03:32:44.471Z,41.20
2023-02-22T03:35:25.975Z,41.22
2023-02-22T03:38:03.902Z,41.17
2023-02-22T03:40:39.421Z,41.16
2023-02-22T03:43:25.031Z,41.31
2023-02-22T03:45:58.445Z,41.22
2023-02-22T03:48:40.736Z,41.24
2023-02-22T03:51:17.407Z,41.21
2023-02-22T03:53:50.868Z,41.24
2023-02-22T03:56:30.853Z,41.26
2023-02-22T03:59:08.005Z,41.23
2023-02-22T04:01:37.876Z,41.24
2023-02-22T04:04:11.196Z,41.18
2023-02-22T04:06:44.502Z,41.22
2023-02-22T04:09:15.231Z,41.31
2023-02-22T04:11:57.065Z,41.26
2023-02-22T04:14:31.924Z,41.22
2023-02-22T04:17:01.509Z,41.25
2023-02-22T04:19:30.835Z,41.21
2023-02-22T04:21:57.779Z,41.23
2023-02-22T04:24:30.244Z,41.25
2023-02-22T04:27:00.161Z,41.25
2023-02-22T04:29:33.252Z,41.33
2023-02-22T04:31:59.785Z,41.25
2023-02-22T04:34:30.025Z,41.22
2023-02-22T04:37:00.707Z,41.25
2023-02-22T04:39:36.837Z,41.27
2023-02-22T04:42:10.834Z,41.28
2023-02-22T04:44:43.690Z,41.31
2023-02-22T04:47:14.597Z,41.26
2023-02-22T04:49:47.317Z,41.26
2023-02-22T04:52:18.421Z,41.34
2023-02-22T04:54:45.354Z,41.28
2023-02-22T04:57:18.933Z,41.30
2023-02-22T04:59:52.139Z,41.29
2023-02-22T05:02:22.754Z,41.27
2023-02-22T05:04:49.748Z,41.24
2023-02-22T05:07:25.665Z,41.27
2023-02-22T05:09:55.535Z,41.37
2023-02-22T05:12:27.286Z,41.34
2023-02-22T05:14:57.090Z,41.34
2023-02-22T05:17:24.337Z,41.61
2023-02-22T05:19:53.825Z,41.73
2023-02-22T05:22:26.231Z,41.63
2023-02-22T05:24:59.506Z,41.65
2023-02-22T05:27:31.377Z,41.74
2023-02-22T05:29:58.189Z,41.75
2023-02-22T05:32:30.909Z,41.67
2023-02-22T05:35:01.053Z,41.74
2023-02-22T05:37:31.144Z,41.80
2023-02-22T05:40:01.836Z,41.70
2023-02-22T05:42:29.672Z,41.99
2023-02-22T05:45:00.131Z,42.38
2023-02-22T05:47:30.086Z,42.60
2023-02-22T05:49:56.861Z,42.14
2023-02-22T05:52:23.618Z,42.06
2023-02-22T05:54:56.512Z,42.14
2023-02-22T05:57:26.678Z,42.27
2023-02-22T05:59:53.406Z,42.33
2023-02-22T06:02:24.382Z,42.36
2023-02-22T06:04:51.081Z,42.38
2023-02-22T06:07:23.571Z,42.58
2023-02-22T06:09:50.261Z,42.58
2023-02-22T06:12:17.179Z,42.74
2023-02-22T06:14:50.625Z,42.61
2023-02-22T06:17:20.508Z,42.53
2023-02-22T06:19:53.737Z,42.60
2023-02-22T06:22:26.807Z,42.37
2023-02-22T06:25:00.072Z,42.01
2023-02-22T06:27:30.834Z,41.84
2023-02-22T06:29:57.781Z,41.71
2023-02-22T06:32:24.839Z,41.20
2023-02-22T06:34:51.694Z,40.51
2023-02-22T06:37:18.440Z,40.60
2023-02-22T06:39:48.680Z,40.27
2023-02-22T06:42:24.898Z,39.92
2023-02-22T06:44:54.748Z,40.24
2023-02-22T06:47:21.451Z,40.65
2023-02-22T06:49:58.998Z,40.75
2023-02-22T06:52:25.736Z,41.16
2023-02-22T06:54:58.814Z,41.29
2023-02-22T06:57:25.413Z,41.61
2023-02-22T06:59:52.042Z,41.60
2023-02-22T07:02:19.478Z,41.70
2023-02-22T07:04:49.425Z,41.78
2023-02-22T07:07:16.435Z,41.97
2023-02-22T07:09:49.246Z,42.20
2023-02-22T07:12:22.941Z,42.28
2023-02-22T07:14:50.499Z,42.31
2023-02-22T07:17:24.144Z,42.45
2023-02-22T07:19:55.493Z,42.56
2023-02-22T07:22:24.965Z,42.56
2023-02-22T07:24:55.174Z,42.58
2023-02-22T07:27:29.675Z,42.64
2023-02-22T07:29:59.513Z,42.72
2023-02-22T07:32:30.294Z,42.83
2023-02-22T07:34:57.365Z,42.84
2023-02-22T07:37:27.080Z,43.03
2023-02-22T07:40:01.342Z,43.40
2023-02-22T07:42:28.323Z,43.61
2023-02-22T07:44:59.612Z,43.99
2023-02-22T07:47:33.613Z,44.43
2023-02-22T07:50:02.246Z,44.79
2023-02-22T07:52:32.140Z,44.74
2023-02-22T07:54:59.087Z,44.80
2023-02-22T07:57:27.039Z,44.81
2023-02-22T07:59:54.030Z,45.09
2023-02-22T08:02:22.038Z,45.19
2023-02-22T08:04:52.401Z,45.16
2023-02-22T08:07:25.032Z,44.82
2023-02-22T08:09:58.224Z,44.67
2023-02-22T08:12:28.508Z,44.61
2023-02-22T08:14:58.529Z,44.55
2023-02-22T08:17:28.180Z,44.52
2023-02-22T08:20:01.550Z,44.46
2023-02-22T08:22:31.285Z,44.43
2023-02-22T08:24:58.225Z,44.42
2023-02-22T08:27:29.376Z,44.35
2023-02-22T08:29:56.872Z,44.31
2023-02-22T08:32:27.400Z,44.34
2023-02-22T08:34:54.281Z,44.37
2023-02-22T08:37:21.012Z,44.27
2023-02-22T08:39:53.298Z,44.30
2023-02-22T08:42:23.446Z,44.25
2023-02-22T08:44:52.974Z,44.22
2023-02-22T08:47:19.621Z,44.21
2023-02-22T08:49:49.578Z,44.22
2023-02-22T08:52:18.429Z,44.29
2023-02-22T08:54:45.654Z,44.29
2023-02-22T08:57:12.580Z,44.36
2023-02-22T08:59:39.184Z,44.31
2023-02-22T09:02:13.919Z,44.35
2023-02-22T09:04:44.079Z,44.43
2023-02-22T09:07:18.216Z,44.41
2023-02-22T09:09:50.856Z,44.45
2023-02-22T09:12:18.172Z,44.50
2023-02-22T09:14:48.833Z,44.48
2023-02-22T09:17:15.709Z,44.48
2023-02-22T09:19:42.484Z,44.41
2023-02-22T09:22:09.279Z,44.34
2023-02-22T09:24:35.936Z,44.28
2023-02-22T09:27:05.437Z,44.31
2023-02-22T09:29:32.099Z,44.20
2023-02-22T09:32:01.754Z,44.22
2023-02-22T09:34:37.941Z,44.12
2023-02-22T09:37:10.100Z,44.11
2023-02-22T09:39:43.148Z,44.07
2023-02-22T09:42:09.740Z,44.04
2023-02-22T09:44:52.340Z,43.97
2023-02-22T09:47:26.438Z,43.94
2023-02-22T09:50:13.228Z,43.92
2023-02-22T09:52:56.620Z,43.77
2023-02-22T09:55:26.116Z,43.78
2023-02-22T09:57:53.488Z,43.75
2023-02-22T10:00:24.055Z,43.74
2023-02-22T10:03:05.299Z,43.75
2023-02-22T10:05:37.277Z,43.71
2023-02-22T10:08:11.452Z,43.60
2023-02-22T10:10:43.327Z,43.41
2023-02-22T10:13:31.779Z,43.63
2023-02-22T10:16:18.097Z,43.87
2023-02-22T10:19:16.990Z,43.61
2023-02-22T10:21:53.307Z,43.48
2023-02-22T10:24:44.234Z,43.66
2023-02-22T10:27:21.159Z,43.73
2023-02-22T10:30:24.591Z,43.77
2023-02-22T10:32:59.357Z,44.19
2023-02-22T10:35:33.441Z,44.24
2023-02-22T10:38:11.718Z,44.26
2023-02-22T10:40:39.071Z,44.42
2023-02-22T10:43:08.422Z,44.35
2023-02-22T10:45:36.321Z,44.25
2023-02-22T10:48:20.277Z,44.32
2023-02-22T10:50:52.491Z,44.46
2023-02-22T10:53:19.611Z,44.38
2023-02-22T10:56:10.477Z,44.16
2023-02-22T10:58:51.710Z,44.16
2023-02-22T11:01:32.990Z,44.16
2023-02-22T11:04:13.767Z,44.18
2023-02-22T11:06:49.818Z,44.50
2023-02-22T11:09:34.512Z,44.51
2023-02-22T11:12:19.540Z,44.47
2023-02-22T11:14:50.186Z,44.34
2023-02-22T11:17:28.111Z,44.40
2023-02-22T11:19:58.705Z,44.86
2023-02-22T11:22:39.869Z,44.81
2023-02-22T11:25:18.980Z,44.76
2023-02-22T11:27:46.418Z,44.49
2023-02-22T11:30:29.296Z,44.48
2023-02-22T11:33:17.155Z,44.45
2023-02-22T11:35:51.790Z,44.43
2023-02-22T11:38:23.002Z,44.42
2023-02-22T11:41:07.044Z,44.36
2023-02-22T11:43:37.760Z,44.47
2023-02-22T11:46:11.953Z,44.33
2023-02-22T11:48:42.202Z,44.34
2023-02-22T11:51:35.220Z,44.42
2023-02-22T11:54:33.269Z,44.40
2023-02-22T11:57:48.560Z,44.38
2023-02-22T12:00:23.439Z,44.28
2023-02-22T12:03:16.136Z,44.28
2023-02-22T12:06:10.737Z,44.22
2023-02-22T12:09:03.084Z,44.26
2023-02-22T12:12:00.270Z,44.02
2023-02-22T12:15:08.533Z,43.78
2023-02-22T12:17:54.344Z,42.75
2023-02-22T12:20:27.777Z,41.81
2023-02-22T12:23:29.227Z,41.85
2023-02-22T12:26:11.655Z,41.89
2023-02-22T12:31:18.188Z,41.63
2023-02-22T12:34:04.030Z,41.54
2023-02-22T12:36:40.250Z,41.05
2023-02-22T12:39:51.740Z,41.18
2023-02-22T12:42:54.067Z,41.65
2023-02-22T12:45:56.356Z,41.57
2023-02-22T12:48:42.080Z,41.38
2023-02-22T12:51:44.529Z,41.50
2023-02-22T12:54:22.978Z,41.65
2023-02-22T12:57:12.758Z,41.67
2023-02-22T12:59:50.404Z,42.16
2023-02-22T13:02:21.015Z,41.88
2023-02-22T13:04:54.508Z,41.82
2023-02-22T13:07:34.691Z,41.86
2023-02-22T13:10:24.577Z,42.03
2023-02-22T13:13:09.930Z,41.35
2023-02-22T13:16:29.382Z,41.42
2023-02-22T13:19:16.816Z,41.04
2023-02-22T13:21:43.514Z,41.07
2023-02-22T13:24:30.183Z,41.23
2023-02-22T13:27:02.104Z,40.96
2023-02-22T13:29:38.165Z,40.63
2023-02-22T13:32:29.555Z,40.75
2023-02-22T13:35:09.300Z,40.50
2023-02-22T13:38:13.665Z,40.78
2023-02-22T13:40:49.440Z,40.44
2023-02-22T13:43:25.245Z,40.67
2023-02-22T13:45:59.963Z,40.59
2023-02-22T13:48:41.817Z,40.52
2023-02-22T13:51:47.886Z,40.43
2023-02-22T13:54:33.108Z,40.49
2023-02-22T13:57:04.919Z,40.64
2023-02-22T13:59:37.155Z,41.00
2023-02-22T14:02:05.978Z,40.84
2023-02-22T14:04:38.908Z,40.55
2023-02-22T14:07:24.368Z,40.59
2023-02-22T14:09:55.918Z,40.79
2023-02-22T14:12:31.532Z,40.71
2023-02-22T14:15:18.720Z,40.07
2023-02-22T14:18:06.514Z,40.01
2023-02-22T14:20:36.400Z,39.92
2023-02-22T14:23:29.083Z,39.73
2023-02-22T14:26:09.187Z,40.23
2023-02-22T14:28:46.481Z,40.30
2023-02-22T14:34:15.699Z,40.41
2023-02-22T14:37:07.398Z,40.75
2023-02-22T14:40:04.219Z,40.88
2023-02-22T14:42:39.363Z,40.98
2023-02-22T14:45:18.462Z,40.81
2023-02-22T14:47:54.708Z,41.24
2023-02-22T14:50:34.017Z,41.01
2023-02-22T14:53:26.961Z,40.94
2023-02-22T14:56:02.830Z,41.15
2023-02-22T14:58:48.646Z,41.46
2023-02-22T15:01:55.283Z,41.20
2023-02-22T15:04:31.402Z,41.16
2023-02-22T15:07:00.797Z,40.92
2023-02-22T15:09:33.042Z,40.27
2023-02-22T15:12:07.762Z,40.09
2023-02-22T15:14:35.559Z,40.21
2023-02-22T15:17:17.992Z,40.03
2023-02-22T15:19:46.924Z,39.85
2023-02-22T15:22:26.374Z,39.62
2023-02-22T15:25:05.596Z,39.60
2023-02-22T15:27:33.837Z,39.56
2023-02-22T15:30:24.324Z,39.28
2023-02-22T15:33:03.687Z,38.97
2023-02-22T15:35:33.702Z,39.27
2023-02-22T15:41:29.778Z,39.45
2023-02-22T15:44:22.762Z,39.53
2023-02-22T15:46:53.674Z,40.33
2023-02-22T15:49:22.516Z,40.31
2023-02-22T15:52:02.716Z,40.93
2023-02-22T15:54:30.696Z,41.65
2023-02-22T15:56:57.442Z,42.24
2023-02-22T15:59:31.211Z,42.71
2023-02-22T16:02:02.311Z,42.90
2023-02-22T16:04:31.540Z,43.03
2023-02-22T16:07:16.575Z,43.09
2023-02-22T16:09:49.602Z,43.16
2023-02-22T16:12:22.317Z,43.19
2023-02-22T16:14:54.399Z,43.19
2023-02-22T16:17:49.366Z,42.91
2023-02-22T16:20:27.220Z,43.06
2023-02-22T16:22:59.601Z,42.99
2023-02-22T16:25:33.617Z,43.22
2023-02-22T16:28:03.319Z,43.14
2023-02-22T16:30:36.485Z,43.00
2023-02-22T16:33:08.400Z,42.94
2023-02-22T16:35:35.086Z,43.02
2023-02-22T16:38:07.469Z,43.05
2023-02-22T16:40:38.459Z,43.09
2023-02-22T16:43:18.641Z,43.22
2023-02-22T16:45:50.002Z,43.23
2023-02-22T16:48:28.134Z,43.28
2023-02-22T16:51:02.352Z,43.00
2023-02-22T16:53:32.269Z,43.30
2023-02-22T16:56:04.501Z,43.29
2023-02-22T16:58:38.064Z,43.35
2023-02-22T17:01:06.545Z,43.28
2023-02-22T17:03:33.910Z,43.22
2023-02-22T17:06:01.245Z,43.18
2023-02-22T17:08:28.121Z,43.19
2023-02-22T17:10:58.020Z,43.15
2023-02-22T17:13:30.385Z,43.75
2023-02-22T17:16:02.064Z,43.47
2023-02-22T17:18:31.268Z,43.27
2023-02-22T17:21:02.681Z,43.22
2023-02-22T17:23:32.131Z,43.13
2023-02-22T17:26:02.453Z,43.44
2023-02-22T17:28:43.001Z,43.16
2023-02-22T17:31:35.970Z,43.11
2023-02-22T17:34:08.006Z,42.86
2023-02-22T17:36:42.171Z,42.71
2023-02-22T17:39:11.360Z,42.67
2023-02-22T17:41:43.593Z,42.66
2023-02-22T17:44:16.915Z,42.61
2023-02-22T17:46:56.928Z,42.66
2023-02-22T17:49:28.066Z,42.72
2023-02-22T17:52:00.830Z,42.85
2023-02-22T17:54:30.693Z,43.06
2023-02-22T17:56:58.318Z,43.63
2023-02-22T17:59:25.374Z,43.98
2023-02-22T18:01:55.880Z,43.84
2023-02-22T18:04:31.903Z,44.07
2023-02-22T18:06:59.476Z,43.97
2023-02-22T18:09:26.727Z,43.81
2023-02-22T18:11:56.757Z,43.69
2023-02-22T18:14:24.065Z,43.58
2023-02-22T18:16:51.399Z,43.65
2023-02-22T18:19:19.952Z,43.58
2023-02-22T18:21:48.783Z,43.45
2023-02-22T18:24:16.516Z,43.48
2023-02-22T18:26:47.139Z,43.47
2023-02-22T18:29:17.868Z,43.71
2023-02-22T18:32:08.551Z,44.02
2023-02-22T18:34:36.220Z,44.40
2023-02-22T18:37:06.173Z,44.36
2023-02-22T18:39:37.689Z,43.82
2023-02-22T18:42:27.504Z,43.64
2023-02-22T18:44:58.452Z,43.58
2023-02-22T18:51:15.578Z,42.53
2023-02-22T18:53:46.617Z,42.16
2023-02-22T18:57:01.040Z,41.95
2023-02-22T18:59:30.872Z,41.73
2023-02-22T19:02:02.467Z,41.46
2023-02-22T19:04:36.313Z,41.34
2023-02-22T19:10:55.402Z,41.47
2023-02-22T19:13:44.570Z,41.69
2023-02-22T19:16:32.971Z,42.05
2023-02-22T19:19:07.076Z,42.64
2023-02-22T19:21:34.342Z,42.72
2023-02-22T19:24:03.906Z,42.74
2023-02-22T19:27:09.953Z,42.72
2023-02-22T19:29:40.509Z,42.78
2023-02-22T22:32:23.175Z,43.73
2023-02-22T22:41:19.836Z,44.50
2023-02-22T23:20:02.077Z,44.97
2023-02-22T23:26:10.850Z,44.97
